createdAt,value
2018-05-29T00:01:28.778Z,4.33
2018-05-29T00:04:26.728Z,3.30
2018-05-29T00:07:24.342Z,3.40
2018-05-29T00:10:22.536Z,5.03
2018-05-29T00:13:20.296Z,3.43
2018-05-29T00:16:18.080Z,6.00
2018-05-29T00:19:16.282Z,3.20
2018-05-29T00:22:14.945Z,3.27
2018-05-29T00:25:13.606Z,3.00
2018-05-29T00:28:10.816Z,4.17
2018-05-29T00:31:07.922Z,3.33
2018-05-29T00:34:05.000Z,4.80
2018-05-29T00:37:02.892Z,3.43
2018-05-29T00:40:00.980Z,4.27
2018-05-29T00:42:58.042Z,4.03
2018-05-29T00:45:55.230Z,3.20
2018-05-29T00:48:52.282Z,3.90
2018-05-29T00:51:50.048Z,3.80
2018-05-29T00:54:47.052Z,3.43
2018-05-29T00:57:44.205Z,4.27
2018-05-29T01:00:41.889Z,3.00
2018-05-29T01:03:39.744Z,3.40
2018-05-29T01:06:45.644Z,3.53
2018-05-29T01:09:42.713Z,2.93
2018-05-29T01:12:40.430Z,3.53
2018-05-29T01:15:37.492Z,3.33
2018-05-29T01:18:35.239Z,3.97
2018-05-29T01:21:32.393Z,3.57
2018-05-29T01:24:30.328Z,3.27
2018-05-29T01:27:28.259Z,3.07
2018-05-29T01:30:26.252Z,3.13
2018-05-29T01:33:24.261Z,3.00
2018-05-29T01:36:22.199Z,3.00
2018-05-29T01:39:19.255Z,3.80
2018-05-29T01:42:16.960Z,3.20
2018-05-29T01:45:14.043Z,3.47
2018-05-29T01:48:11.940Z,4.00
2018-05-29T01:51:10.355Z,2.87
2018-05-29T01:54:07.500Z,3.30
2018-05-29T01:57:05.245Z,3.00
2018-05-29T02:00:03.287Z,2.60
2018-05-29T02:03:00.984Z,3.37
2018-05-29T02:05:58.182Z,3.27
2018-05-29T02:08:57.279Z,3.00
2018-05-29T02:11:55.098Z,3.43
2018-05-29T02:14:52.135Z,3.00
2018-05-29T02:17:49.984Z,3.47
2018-05-29T02:23:55.744Z,3.33
2018-05-29T02:26:53.477Z,2.80
2018-05-29T02:29:51.405Z,3.40
2018-05-29T02:32:48.501Z,2.80
2018-05-29T02:35:46.436Z,3.50
2018-05-29T02:38:43.977Z,3.10
2018-05-29T02:41:41.022Z,4.27
2018-05-29T02:44:38.833Z,2.90
2018-05-29T02:47:35.855Z,2.93
2018-05-29T02:50:34.064Z,3.90
2018-05-29T02:53:31.042Z,3.23
2018-05-29T02:56:28.971Z,2.90
2018-05-29T02:59:26.746Z,3.13
2018-05-29T03:02:24.678Z,2.60
2018-05-29T03:05:21.800Z,2.47
2018-05-29T03:08:19.770Z,2.73
2018-05-29T03:11:17.585Z,2.97
2018-05-29T03:14:15.376Z,3.03
2018-05-29T03:17:12.568Z,3.70
2018-05-29T03:20:10.519Z,3.00
2018-05-29T03:23:08.290Z,3.13
2018-05-29T03:26:05.264Z,3.40
2018-05-29T03:29:02.410Z,3.47
2018-05-29T03:32:00.544Z,3.63
2018-05-29T03:34:58.327Z,3.80
2018-05-29T03:37:56.324Z,4.00
2018-05-29T03:40:54.078Z,3.43
2018-05-29T03:43:51.808Z,3.23
2018-05-29T03:46:49.808Z,3.50
2018-05-29T03:49:47.741Z,4.07
2018-05-29T03:52:45.460Z,3.73
2018-05-29T03:55:43.431Z,3.57
2018-05-29T03:58:41.444Z,3.07
2018-05-29T04:01:39.472Z,3.40
2018-05-29T04:04:37.211Z,3.40
2018-05-29T04:07:35.871Z,3.73
2018-05-29T04:10:33.900Z,3.70
2018-05-29T04:13:31.940Z,4.00
2018-05-29T04:16:29.773Z,3.90
2018-05-29T04:19:27.729Z,3.90
2018-05-29T04:22:25.626Z,4.00
2018-05-29T04:25:23.523Z,4.33
2018-05-29T04:28:21.428Z,4.10
2018-05-29T04:31:18.501Z,4.13
2018-05-29T04:34:16.664Z,4.00
2018-05-29T04:37:14.784Z,4.10
2018-05-29T04:40:12.847Z,5.73
2018-05-29T04:43:10.072Z,4.47
2018-05-29T04:46:07.834Z,4.40
2018-05-29T04:49:05.218Z,3.80
2018-05-29T04:52:02.653Z,3.87
2018-05-29T04:55:00.271Z,4.00
2018-05-29T04:57:58.373Z,4.80
2018-05-29T05:00:56.398Z,4.63
2018-05-29T05:03:53.532Z,5.63
2018-05-29T05:06:50.763Z,3.90
2018-05-29T05:09:47.934Z,4.80
2018-05-29T05:12:46.745Z,5.00
2018-05-29T05:15:43.943Z,4.17
2018-05-29T05:18:41.100Z,3.93
2018-05-29T05:21:40.129Z,4.53
2018-05-29T05:24:37.928Z,6.40
2018-05-29T05:27:35.125Z,4.07
2018-05-29T05:30:33.295Z,4.10
2018-05-29T05:33:30.458Z,3.73
2018-05-29T05:36:28.269Z,4.97
2018-05-29T05:39:25.961Z,3.80
2018-05-29T05:42:23.840Z,4.57
2018-05-29T05:45:23.787Z,2.23
2018-05-29T05:48:20.882Z,2.90
2018-05-29T05:51:18.827Z,2.93
2018-05-29T05:54:16.969Z,2.60
2018-05-29T05:57:13.938Z,3.00
2018-05-29T06:00:13.242Z,2.77
2018-05-29T06:03:10.714Z,2.63
2018-05-29T06:06:08.781Z,3.77
2018-05-29T06:09:06.707Z,3.33
2018-05-29T06:12:04.746Z,3.13
2018-05-29T06:15:03.452Z,2.97
2018-05-29T06:18:01.396Z,3.57
2018-05-29T06:20:59.179Z,3.53
2018-05-29T06:23:57.224Z,3.40
2018-05-29T06:26:54.862Z,3.77
2018-05-29T06:29:52.764Z,2.80
2018-05-29T06:32:50.653Z,3.07
2018-05-29T06:35:48.543Z,2.70
2018-05-29T06:38:45.725Z,2.30
2018-05-29T06:41:44.722Z,2.70
2018-05-29T06:44:41.906Z,2.90
2018-05-29T06:47:39.161Z,2.53
2018-05-29T06:50:36.803Z,2.67
2018-05-29T06:53:34.494Z,3.20
2018-05-29T06:56:33.253Z,2.40
2018-05-29T06:59:33.346Z,2.50
2018-05-29T07:02:31.145Z,3.27
2018-05-29T07:05:28.255Z,2.80
2018-05-29T07:08:26.166Z,4.33
2018-05-29T07:11:23.177Z,3.10
2018-05-29T07:14:21.407Z,3.80
2018-05-29T07:17:18.367Z,3.60
2018-05-29T07:20:15.619Z,3.37
2018-05-29T07:23:13.421Z,4.20
2018-05-29T07:26:10.432Z,3.27
2018-05-29T07:29:08.370Z,3.47
2018-05-29T07:32:06.400Z,3.37
2018-05-29T07:35:04.328Z,3.65
2018-05-29T07:38:02.302Z,2.95
2018-05-29T07:41:00.437Z,3.03
2018-05-29T07:43:58.312Z,4.37
2018-05-29T07:46:56.188Z,3.30
2018-05-29T07:49:53.982Z,2.87
2018-05-29T07:52:52.661Z,3.33
2018-05-29T07:55:50.467Z,2.87
2018-05-29T07:58:48.435Z,3.37
2018-05-29T08:01:46.250Z,3.65
2018-05-29T08:04:44.075Z,3.20
2018-05-29T08:07:41.660Z,3.10
2018-05-29T08:10:39.540Z,3.92
2018-05-29T08:13:37.444Z,3.05
2018-05-29T08:16:35.308Z,2.25
2018-05-29T08:19:32.283Z,2.65
2018-05-29T08:22:29.427Z,2.92
2018-05-29T08:25:27.258Z,4.03
2018-05-29T08:28:26.131Z,3.03
2018-05-29T08:31:23.649Z,3.37
2018-05-29T08:34:21.503Z,3.10
2018-05-29T08:37:19.527Z,3.25
2018-05-29T08:40:17.216Z,3.15
2018-05-29T08:43:14.803Z,2.92
2018-05-29T08:46:12.745Z,3.12
2018-05-29T08:49:10.692Z,3.92
2018-05-29T08:52:07.982Z,3.25
2018-05-29T08:55:06.003Z,3.20
2018-05-29T08:58:03.446Z,4.03
2018-05-29T09:01:01.229Z,4.00
2018-05-29T09:03:58.418Z,3.10
2018-05-29T09:06:56.232Z,3.10
2018-05-29T09:09:54.015Z,3.33
2018-05-29T09:12:52.042Z,3.78
2018-05-29T09:15:49.942Z,3.42
2018-05-29T09:18:47.633Z,3.15
2018-05-29T09:21:45.454Z,3.92
2018-05-29T09:24:43.326Z,3.75
2018-05-29T09:27:41.085Z,3.83
2018-05-29T09:30:38.810Z,4.35
2018-05-29T09:33:36.595Z,3.20
2018-05-29T09:36:33.567Z,3.95
2018-05-29T09:39:31.431Z,3.33
2018-05-29T09:42:28.620Z,3.50
2018-05-29T09:45:26.444Z,4.75
2018-05-29T09:48:24.483Z,3.85
2018-05-29T09:51:22.329Z,4.62
2018-05-29T09:54:20.091Z,4.62
2018-05-29T09:57:17.848Z,4.60
2018-05-29T10:00:15.718Z,4.40
2018-05-29T10:03:14.443Z,4.00
2018-05-29T10:06:11.444Z,4.45
2018-05-29T10:09:08.420Z,3.78
2018-05-29T10:12:05.790Z,3.92
2018-05-29T10:15:02.903Z,3.78
2018-05-29T10:18:01.142Z,5.12
2018-05-29T10:20:59.164Z,4.97
2018-05-29T10:23:56.153Z,4.32
2018-05-29T10:26:53.490Z,4.65
2018-05-29T10:29:50.847Z,4.82
2018-05-29T10:32:47.993Z,5.95
2018-05-29T10:35:45.008Z,4.50
2018-05-29T10:38:42.087Z,4.07
2018-05-29T10:41:39.181Z,8.57
2018-05-29T10:44:37.227Z,4.20
2018-05-29T10:47:34.306Z,4.90
2018-05-29T10:50:32.443Z,5.07
2018-05-29T10:53:30.530Z,4.93
2018-05-29T10:56:28.377Z,4.62
2018-05-29T10:59:26.132Z,5.12
2018-05-29T11:02:24.084Z,5.10
2018-05-29T11:05:22.874Z,4.97
2018-05-29T11:08:20.256Z,5.82
2018-05-29T11:11:18.309Z,5.20
2018-05-29T11:14:15.359Z,5.12
2018-05-29T11:17:12.502Z,5.10
2018-05-29T11:20:10.384Z,5.03
2018-05-29T11:23:08.175Z,6.70
2018-05-29T11:26:05.969Z,5.05
2018-05-29T11:29:02.984Z,4.95
2018-05-29T11:32:00.166Z,4.97
2018-05-29T11:34:57.913Z,5.33
2018-05-29T11:37:55.778Z,5.35
2018-05-29T11:40:52.996Z,5.50
2018-05-29T11:43:51.118Z,5.20
2018-05-29T11:46:48.997Z,4.90
2018-05-29T11:49:47.731Z,4.75
2018-05-29T11:52:46.849Z,4.87
2018-05-29T11:55:44.697Z,4.95
2018-05-29T11:58:41.807Z,4.57
2018-05-29T12:01:39.995Z,4.85
2018-05-29T12:04:37.746Z,4.65
2018-05-29T12:07:35.439Z,5.30
2018-05-29T12:10:33.290Z,4.28
2018-05-29T12:13:31.014Z,4.37
2018-05-29T12:16:28.925Z,4.10
2018-05-29T12:19:26.916Z,4.53
2018-05-29T12:22:24.851Z,4.82
2018-05-29T12:25:23.352Z,4.95
2018-05-29T12:28:20.615Z,5.55
2018-05-29T12:31:19.497Z,5.12
2018-05-29T12:34:17.500Z,5.18
2018-05-29T12:37:15.668Z,4.72
2018-05-29T12:40:12.640Z,5.12
2018-05-29T12:43:10.600Z,5.00
2018-05-29T12:46:08.289Z,5.07
2018-05-29T12:49:06.138Z,4.00
2018-05-29T12:52:04.028Z,4.47
2018-05-29T12:55:01.396Z,4.65
2018-05-29T12:57:58.523Z,3.92
2018-05-29T13:00:56.432Z,4.28
2018-05-29T13:03:54.174Z,4.37
2018-05-29T13:06:52.131Z,5.12
2018-05-29T13:09:50.025Z,5.53
2018-05-29T13:12:47.705Z,5.32
2018-05-29T13:15:44.648Z,5.10
2018-05-29T13:18:42.520Z,5.10
2018-05-29T13:21:40.405Z,5.40
2018-05-29T13:24:38.270Z,5.18
2018-05-29T13:27:35.803Z,4.78
2018-05-29T13:30:33.632Z,5.47
2018-05-29T13:33:31.490Z,4.50
2018-05-29T13:36:29.678Z,7.47
2018-05-29T13:39:28.530Z,4.95
2018-05-29T13:42:25.522Z,5.15
2018-05-29T13:45:24.565Z,4.93
2018-05-29T13:48:21.688Z,4.87
2018-05-29T13:51:19.652Z,5.20
2018-05-29T13:54:17.804Z,5.45
2018-05-29T13:57:15.644Z,5.33
2018-05-29T14:00:13.516Z,5.33
2018-05-29T14:03:10.959Z,5.43
2018-05-29T14:06:09.063Z,5.63
2018-05-29T14:09:07.077Z,5.40
2018-05-29T14:12:05.966Z,5.37
2018-05-29T14:15:04.091Z,6.00
2018-05-29T14:18:02.106Z,4.33
2018-05-29T14:20:59.370Z,4.70
2018-05-29T14:23:56.488Z,10.47
2018-05-29T14:26:54.357Z,5.07
2018-05-29T14:29:52.294Z,4.60
2018-05-29T14:32:49.443Z,4.70
2018-05-29T14:35:47.341Z,5.43
2018-05-29T14:38:44.473Z,5.00
2018-05-29T14:41:41.538Z,5.23
2018-05-29T14:44:39.400Z,4.83
2018-05-29T14:47:37.654Z,4.50
2018-05-29T14:50:34.752Z,4.67
2018-05-29T14:53:32.706Z,4.90
2018-05-29T14:56:30.744Z,5.33
2018-05-29T14:59:28.660Z,4.80
2018-05-29T15:02:25.768Z,4.87
2018-05-29T15:05:23.749Z,4.60
2018-05-29T15:08:20.963Z,5.40
2018-05-29T15:11:18.225Z,5.33
2018-05-29T15:14:16.107Z,5.20
2018-05-29T15:17:13.644Z,4.17
2018-05-29T15:20:11.308Z,4.87
2018-05-29T15:23:09.176Z,6.03
2018-05-29T15:26:07.159Z,4.80
2018-05-29T15:29:04.845Z,5.80
2018-05-29T15:32:01.874Z,4.90
2018-05-29T15:35:00.354Z,5.73
2018-05-29T15:37:58.370Z,4.37
2018-05-29T15:40:55.624Z,5.20
2018-05-29T15:43:53.948Z,4.37
2018-05-29T15:46:51.387Z,4.67
2018-05-29T15:49:48.638Z,4.30
2018-05-29T15:52:45.829Z,4.90
2018-05-29T15:55:44.062Z,4.30
2018-05-29T15:58:41.891Z,4.87
2018-05-29T16:01:39.959Z,4.30
2018-05-29T16:04:38.195Z,4.97
2018-05-29T16:07:36.126Z,4.57
2018-05-29T16:10:34.093Z,4.20
2018-05-29T16:13:31.251Z,4.80
2018-05-29T16:16:29.469Z,4.93
2018-05-29T16:19:27.376Z,4.77
2018-05-29T16:22:25.177Z,4.63
2018-05-29T16:25:23.040Z,4.97
2018-05-29T16:28:21.675Z,4.80
2018-05-29T16:31:19.511Z,4.80
2018-05-29T16:34:17.698Z,5.73
2018-05-29T16:37:15.626Z,4.60
2018-05-29T16:40:14.613Z,4.20
2018-05-29T16:43:12.395Z,4.77
2018-05-29T16:46:11.054Z,4.20
2018-05-29T16:49:08.862Z,4.07
2018-05-29T16:52:06.793Z,4.17
2018-05-29T16:55:04.424Z,4.07
2018-05-29T16:58:02.457Z,4.47
2018-05-29T17:01:00.432Z,4.90
2018-05-29T17:03:58.217Z,4.97
2018-05-29T17:06:56.170Z,4.97
2018-05-29T17:09:54.118Z,4.23
2018-05-29T17:12:52.077Z,4.87
2018-05-29T17:15:49.903Z,5.10
2018-05-29T17:18:46.862Z,5.17
2018-05-29T17:21:44.787Z,4.93
2018-05-29T17:24:42.652Z,9.80
2018-05-29T17:27:39.805Z,4.60
2018-05-29T17:30:37.912Z,4.80
2018-05-29T17:33:35.076Z,4.60
2018-05-29T17:36:32.236Z,5.13
2018-05-29T17:39:30.045Z,4.17
2018-05-29T17:42:27.167Z,4.63
2018-05-29T17:45:25.285Z,5.30
2018-05-29T17:48:23.194Z,5.00
2018-05-29T17:51:21.403Z,4.60
2018-05-29T17:54:19.221Z,5.00
2018-05-29T17:57:17.076Z,4.47
2018-05-29T18:00:14.863Z,5.10
2018-05-29T18:03:12.868Z,4.50
2018-05-29T18:06:09.855Z,4.53
2018-05-29T18:09:07.968Z,4.73
2018-05-29T18:12:05.567Z,5.10
2018-05-29T18:15:03.531Z,4.80
2018-05-29T18:18:01.416Z,5.70
2018-05-29T18:20:59.293Z,5.70
2018-05-29T18:23:57.134Z,4.33
2018-05-29T18:26:55.947Z,5.20
2018-05-29T18:29:53.837Z,5.73
2018-05-29T18:32:57.329Z,4.30
2018-05-29T18:35:54.744Z,4.47
2018-05-29T18:38:51.807Z,4.47
2018-05-29T18:41:49.823Z,4.30
2018-05-29T18:44:47.659Z,4.43
2018-05-29T18:47:44.713Z,4.53
2018-05-29T18:50:41.943Z,4.40
2018-05-29T18:53:39.978Z,4.67
2018-05-29T18:56:38.457Z,4.73
2018-05-29T18:59:36.429Z,4.87
2018-05-29T19:02:33.937Z,5.00
2018-05-29T19:05:31.148Z,4.37
2018-05-29T19:08:29.170Z,5.60
2018-05-29T19:11:27.313Z,5.37
2018-05-29T19:14:24.347Z,5.30
2018-05-29T19:17:22.371Z,5.10
2018-05-29T19:20:19.623Z,5.00
2018-05-29T19:23:17.533Z,5.17
2018-05-29T19:26:14.577Z,5.10
2018-05-29T19:29:12.359Z,5.13
2018-05-29T19:32:10.338Z,4.80
2018-05-29T19:35:08.237Z,5.23
2018-05-29T19:38:06.052Z,5.70
2018-05-29T19:41:03.942Z,4.57
2018-05-29T19:44:01.061Z,5.07
2018-05-29T19:47:00.227Z,4.67
2018-05-29T19:49:57.705Z,4.13
2018-05-29T19:52:55.692Z,5.03
2018-05-29T19:55:54.730Z,5.17
2018-05-29T19:58:53.526Z,5.03
2018-05-29T20:01:50.693Z,4.90
2018-05-29T20:04:48.394Z,4.60
2018-05-29T20:07:45.465Z,17.57
2018-05-29T20:10:43.547Z,4.87
2018-05-29T20:13:40.680Z,5.00
2018-05-29T20:16:38.447Z,5.30
2018-05-29T20:19:36.106Z,4.60
2018-05-29T20:22:34.002Z,4.67
2018-05-29T20:25:32.014Z,4.13
2018-05-29T20:28:30.001Z,5.10
2018-05-29T20:31:28.153Z,4.93
2018-05-29T20:34:25.914Z,4.90
2018-05-29T20:37:23.589Z,5.57
2018-05-29T20:40:21.626Z,3.97
2018-05-29T20:43:19.537Z,5.67
2018-05-29T20:46:17.589Z,4.23
2018-05-29T20:49:15.056Z,4.53
2018-05-29T20:52:12.803Z,4.70
2018-05-29T20:55:10.733Z,4.50
2018-05-29T20:58:08.670Z,4.50
2018-05-29T21:01:06.643Z,5.33
2018-05-29T21:04:04.468Z,4.67
2018-05-29T21:07:02.530Z,6.20
2018-05-29T21:10:00.391Z,4.70
2018-05-29T21:12:58.135Z,4.63
2018-05-29T21:15:56.157Z,4.20
2018-05-29T21:18:55.126Z,5.07
2018-05-29T21:21:52.994Z,4.60
2018-05-29T21:24:50.940Z,4.90
2018-05-29T21:27:49.795Z,4.90
2018-05-29T21:30:47.636Z,6.37
2018-05-29T21:33:45.661Z,4.17
2018-05-29T21:36:43.556Z,4.53
2018-05-29T21:39:41.603Z,4.47
2018-05-29T21:42:38.699Z,5.10
2018-05-29T21:45:37.155Z,4.13
2018-05-29T21:48:34.606Z,4.30
2018-05-29T21:51:32.495Z,4.13
2018-05-29T21:54:29.716Z,4.83
2018-05-29T21:57:27.541Z,4.53
2018-05-29T22:00:24.640Z,4.27
2018-05-29T22:03:22.551Z,5.03
2018-05-29T22:06:19.595Z,4.93
2018-05-29T22:09:16.635Z,5.07
2018-05-29T22:12:14.559Z,8.27
2018-05-29T22:15:12.625Z,6.90
2018-05-29T22:18:10.627Z,6.17
2018-05-29T22:21:08.520Z,7.20
2018-05-29T22:24:06.408Z,6.37
2018-05-29T22:27:04.151Z,6.87
2018-05-29T22:30:02.052Z,7.40
2018-05-29T22:33:00.096Z,8.30
2018-05-29T22:35:57.928Z,7.77
2018-05-29T22:38:55.804Z,7.37
2018-05-29T22:41:53.590Z,9.10
2018-05-29T22:44:50.725Z,8.40
2018-05-29T22:47:48.783Z,10.60
2018-05-29T22:50:47.007Z,8.67
2018-05-29T22:53:44.784Z,8.37
2018-05-29T22:56:42.712Z,8.30
2018-05-29T22:59:40.546Z,7.97
2018-05-29T23:02:37.619Z,8.00
2018-05-29T23:05:35.429Z,8.27
2018-05-29T23:08:33.184Z,8.10
2018-05-29T23:11:31.088Z,8.20
2018-05-29T23:14:28.821Z,8.10
2018-05-29T23:17:26.114Z,8.13
2018-05-29T23:20:25.080Z,8.67
2018-05-29T23:23:23.890Z,7.90
2018-05-29T23:26:21.745Z,8.20
2018-05-29T23:29:19.517Z,8.87
2018-05-29T23:32:17.362Z,8.07
2018-05-29T23:35:14.506Z,7.97
2018-05-29T23:38:12.199Z,8.23
2018-05-29T23:41:10.238Z,7.53
2018-05-29T23:44:08.270Z,7.87
2018-05-29T23:47:06.175Z,8.13
2018-05-29T23:50:03.974Z,7.73
2018-05-29T23:53:01.230Z,7.20
2018-05-29T23:55:59.037Z,7.10
2018-05-29T23:58:56.331Z,7.43
